Terminal Aerodrome Forecast
Issued by NWS

Home | Current Version | Previous Version | Text Only | Print | Product List | Glossary On
Versions: 1 2 3 4 5 6 7 8 9 10 11 12 13 14 15
000
FTUS41 KBTV 162335
TAFMPV
TAF
KMPV 162335Z 1700/1724 VRB03KT P6SM VCSH OVC035
      TEMPO 1700/1704 00000KT 4SM -SN BR SCT025 OVC040
     FM171200 00000KT 2SM -SN BR OVC020
     FM172200 VRB03KT P6SM VCSH BKN020
     FM172300 32004KT P6SM BKN025=

USA.gov is the U.S. government's official web portal to all federal, state and local government web resources and services.